Time;durP1;ratioP1;P1;durP2;ratioP2;P2;SDS_P1;SDS_P2;PMS_P1;PMS_P2;Temp;Humidity;BMP_temperature;BMP_pressure;BME280_temperature;BME280_humidity;BME280_pressure;Samples;Min_cycle;Max_cycle;Signal;HPM_P1;HPM_P2
2021/12/05 00:22:58;;;;;;;19.73;13.90;;;;;;;2.90;77.86;96020.34;9798366;30;20060;-77
2021/12/05 00:33:58;;;;;;;20.17;14.25;;;;;;;2.95;78.09;96021.34;9773785;30;20059;-76
2021/12/05 00:40:43;;;;;;;19.80;14.25;;;;;;;2.94;77.68;96028.88;9765765;30;20059;-77
2021/12/05 01:19:25;;;;;;;13.80;10.07;;;;;;;3.11;77.30;96096.88;9778127;30;20454;-76
2021/12/05 01:38:11;;;;;;;17.17;11.07;;;;;;;3.10;76.89;96140.28;9798806;30;20044;-77
2021/12/05 01:55:21;;;;;;;16.60;10.77;;;;;;;2.91;77.31;96148.56;9788140;30;20057;-77
2021/12/05 02:09:21;;;;;;;14.27;9.23;;;;;;;3.15;77.56;96153.03;9778754;30;20075;-77
2021/12/05 02:43:13;;;;;;;13.40;9.15;;;;;;;3.08;76.81;96170.44;9778389;30;20052;-77
2021/12/05 02:48:37;;;;;;;11.10;7.97;;;;;;;3.15;76.79;96185.38;9766625;30;20060;-77
2021/12/05 02:54:20;;;;;;;13.80;9.05;;;;;;;3.19;77.12;96173.94;9765587;30;20058;-77
2021/12/05 02:59:54;;;;;;;13.18;8.73;;;;;;;3.23;76.85;96197.00;9776730;30;20143;-77
2021/12/05 03:05:20;;;;;;;11.77;8.38;;;;;;;3.20;76.62;96172.63;9777605;30;20067;-76
2021/12/05 03:10:45;;;;;;;10.07;7.43;;;;;;;3.16;76.90;96195.81;9777700;30;20118;-76
2021/12/05 03:16:10;;;;;;;11.15;7.38;;;;;;;3.10;76.80;96200.19;9764446;30;20052;-77
2021/12/05 03:21:32;;;;;;;9.70;6.97;;;;;;;3.08;76.59;96213.81;9764061;30;20076;-77
2021/12/05 03:26:55;;;;;;;9.95;5.85;;;;;;;3.09;76.67;96212.53;9764315;30;20053;-77
2021/12/05 03:32:17;;;;;;;7.38;4.80;;;;;;;3.16;77.31;96223.41;9776056;30;20055;-77
2021/12/05 03:37:41;;;;;;;7.70;5.40;;;;;;;3.29;76.44;96225.00;9776529;30;20150;-77
2021/12/05 03:43:09;;;;;;;5.80;4.53;;;;;;;3.40;76.67;96224.41;9776003;30;20310;-77
2021/12/05 03:48:38;;;;;;;6.85;4.15;;;;;;;3.43;76.36;96234.25;9764617;30;20139;-77
2021/12/05 03:54:05;;;;;;;5.72;4.18;;;;;;;3.49;76.26;96233.25;9775970;30;20044;-77
2021/12/05 03:59:30;;;;;;;5.72;3.97;;;;;;;3.54;76.10;96230.19;9764385;30;20127;-77
2021/12/05 04:04:55;;;;;;;4.63;3.53;;;;;;;3.54;76.33;96235.69;9762630;30;20128;-77
2021/12/05 04:10:20;;;;;;;4.53;3.08;;;;;;;3.53;76.12;96234.25;9786748;30;20418;-77
2021/12/05 04:15:44;;;;;;;4.68;2.80;;;;;;;3.50;75.92;96235.41;9774779;30;20455;-76
2021/12/05 04:21:09;;;;;;;3.40;2.50;;;;;;;3.55;75.61;96228.13;9774623;30;20063;-77
2021/12/05 04:26:35;;;;;;;3.17;2.45;;;;;;;3.58;75.73;96244.28;9763109;30;20417;-77
2021/12/05 04:31:59;;;;;;;3.22;2.28;;;;;;;3.63;75.66;96248.75;9776349;30;20045;-78
2021/12/05 04:37:25;;;;;;;3.30;2.33;;;;;;;3.66;75.51;96250.31;9810169;30;20498;-76
2021/12/05 04:42:49;;;;;;;3.67;2.22;;;;;;;3.71;75.55;96267.91;9781472;30;20139;-77
2021/12/05 04:48:39;;;;;;;2.45;1.80;;;;;;;3.71;75.29;96268.63;9759249;30;20064;-77
2021/12/05 04:54:02;;;;;;;2.78;2.10;;;;;;;3.72;75.02;96286.63;9772559;30;20124;-77
2021/12/05 04:59:28;;;;;;;4.18;2.22;;;;;;;3.71;75.46;96293.47;9784017;30;20400;-76
2021/12/05 05:04:53;;;;;;;3.20;2.33;;;;;;;3.70;75.13;96300.31;9737786;30;20139;-76
2021/12/05 05:10:19;;;;;;;3.33;2.35;;;;;;;3.69;74.61;96311.94;9725190;30;20060;-76
2021/12/05 05:15:42;;;;;;;2.78;1.92;;;;;;;3.70;74.70;96327.91;9789541;30;20057;-78
2021/12/05 05:21:19;;;;;;;2.65;1.65;;;;;;;3.66;74.46;96326.88;9772225;30;20083;-77
2021/12/05 05:54:58;;;;;;;2.40;1.60;;;;;;;3.69;74.04;96362.31;9805750;30;20079;-77
2021/12/05 06:00:34;;;;;;;2.60;1.50;;;;;;;3.69;73.80;96381.66;9815594;30;20048;-77
2021/12/05 06:06:11;;;;;;;2.13;1.30;;;;;;;3.67;74.52;96378.75;9806172;30;20087;-76
2021/12/05 06:11:35;;;;;;;1.83;1.38;;;;;;;3.70;73.69;96385.13;9793091;30;20052;-77
2021/12/05 06:17:01;;;;;;;2.15;1.63;;;;;;;3.70;73.31;96398.94;9780845;30;20049;-77
2021/12/05 06:22:24;;;;;;;1.80;1.13;;;;;;;3.67;73.80;96411.88;9778786;30;20484;-76
2021/12/05 06:27:47;;;;;;;2.75;1.33;;;;;;;3.69;73.34;96420.28;9778264;30;20132;-77
2021/12/05 06:50:03;;;;;;;1.58;1.27;;;;;;;3.70;73.33;96421.00;9782768;30;20074;-76
2021/12/05 06:55:36;;;;;;;3.03;1.77;;;;;;;3.68;73.70;96443.66;9780537;30;20509;-77
2021/12/05 07:01:04;;;;;;;5.07;2.05;;;;;;;3.67;72.92;96444.97;9789004;30;20048;-77
2021/12/05 07:06:34;;;;;;;3.22;1.58;;;;;;;3.68;73.24;96449.19;9732222;30;20056;-78
2021/12/05 07:40:30;;;;;;;4.22;1.40;;;;;;;3.93;71.84;96459.22;9755415;30;20136;-79
2021/12/05 07:46:22;;;;;;;3.25;1.60;;;;;;;4.18;72.04;96467.22;9756524;30;20049;-79
2021/12/05 07:51:47;;;;;;;5.07;1.58;;;;;;;4.40;71.02;96479.84;9764390;30;20477;-79
2021/12/05 07:57:27;;;;;;;5.07;1.70;;;;;;;4.55;71.39;96473.28;9752368;30;20053;-79
2021/12/05 08:19:58;;;;;;;5.40;1.20;;;;;;;4.79;69.77;96479.75;9778030;30;20132;-78
2021/12/05 08:25:22;;;;;;;5.75;1.33;;;;;;;4.68;70.00;96500.44;9774213;30;20105;-78
2021/12/05 09:08:39;;;;;;;4.47;1.92;;;;;;;5.21;68.00;96515.16;9787851;30;20060;-77
2021/12/05 09:21:11;;;;;;;6.13;2.25;;;;;;;4.34;68.84;96567.06;9737356;30;20056;-76
2021/12/05 09:28:05;;;;;;;7.32;2.67;;;;;;;4.46;68.42;96554.88;9799184;30;20551;-76
2021/12/05 11:04:11;;;;;;;6.35;1.60;;;;;;;5.45;64.76;96550.00;11014934;24;20088;-83
2021/12/05 11:09:39;;;;;;;3.60;1.52;;;;;;;5.50;64.76;96551.00;9844343;30;20062;-84
2021/12/05 11:15:34;;;;;;;5.10;2.22;;;;;;;5.43;64.68;96543.59;9850050;30;20052;-83
2021/12/05 11:21:01;;;;;;;5.45;2.38;;;;;;;5.61;64.87;96558.66;9833334;30;20112;-83
2021/12/05 11:27:08;;;;;;;9.40;2.33;;;;;;;5.72;64.37;96555.25;9852123;30;20052;-83
2021/12/05 11:32:41;;;;;;;5.25;2.17;;;;;;;5.79;64.07;96545.31;9856821;30;20055;-83
2021/12/05 11:39:07;;;;;;;8.68;3.40;;;;;;;5.68;63.88;96557.00;9859216;30;20059;-83
2021/12/05 11:44:35;;;;;;;8.27;2.60;;;;;;;5.56;63.76;96556.94;9871653;30;20052;-84
2021/12/05 11:59:28;;;;;;;5.82;2.97;;;;;;;5.64;63.75;96556.75;9870124;30;20048;-83
2021/12/05 12:13:09;;;;;;;9.52;3.05;;;;;;;5.55;63.95;96546.44;9872611;30;20071;-84
2021/12/05 12:19:06;;;;;;;4.90;2.20;;;;;;;5.57;64.25;96552.13;9864122;30;20060;-84
2021/12/05 12:25:03;;;;;;;5.93;2.80;;;;;;;5.48;64.02;96553.59;9846206;30;20079;-84
2021/12/05 12:31:51;;;;;;;5.93;2.58;;;;;;;5.32;64.07;96560.81;9724226;30;20058;-84
2021/12/05 12:37:23;;;;;;;7.43;3.10;;;;;;;5.28;64.55;96563.31;9713049;30;20468;-84
2021/12/05 12:43:48;;;;;;;6.38;2.50;;;;;;;5.26;64.35;96563.16;9725367;30;20062;-84
2021/12/05 12:49:44;;;;;;;5.55;1.88;;;;;;;5.13;64.38;96570.63;9724861;30;20062;-84
2021/12/05 12:55:36;;;;;;;7.07;2.03;;;;;;;5.03;64.34;96585.81;9725118;30;20057;-84
2021/12/05 13:16:41;;;;;;;7.55;3.15;;;;;;;4.93;64.60;96607.22;9869957;30;20079;-84
2021/12/05 13:30:58;;;;;;;9.18;3.60;;;;;;;4.79;65.11;96618.00;9872310;30;20123;-84
2021/12/05 13:53:05;;;;;;;7.50;3.08;;;;;;;4.66;65.58;96641.28;9879544;30;20109;-84
2021/12/05 14:12:51;;;;;;;7.53;2.80;;;;;;;4.50;65.54;96648.38;9801609;30;20061;-84
2021/12/05 14:18:45;;;;;;;7.13;2.72;;;;;;;4.46;66.07;96643.31;9794646;30;20049;-85
2021/12/05 14:24:39;;;;;;;7.50;3.20;;;;;;;4.45;66.21;96652.91;9802917;30;20057;-84
2021/12/05 14:31:05;;;;;;;4.50;2.40;;;;;;;4.41;66.14;96649.09;9795877;30;20094;-84
2021/12/05 14:36:34;;;;;;;6.15;2.42;;;;;;;4.39;66.20;96646.94;9817342;30;20383;-85
2021/12/05 14:42:30;;;;;;;6.22;2.65;;;;;;;4.33;65.94;96643.72;9838631;30;20063;-85
2021/12/05 14:48:27;;;;;;;8.32;3.47;;;;;;;4.21;66.09;96634.53;9861015;30;20056;-85
2021/12/05 14:54:33;;;;;;;7.18;3.40;;;;;;;4.09;66.96;96642.66;9842358;30;20107;-84
2021/12/05 15:00:37;;;;;;;8.02;4.00;;;;;;;3.92;66.85;96653.78;9854402;30;20056;-85
2021/12/05 15:08:06;;;;;;;9.70;3.70;;;;;;;3.70;67.43;96661.84;9878531;30;20044;-84
2021/12/05 15:13:40;;;;;;;9.00;4.32;;;;;;;3.55;67.50;96670.34;9853682;30;20088;-84
2021/12/05 15:20:38;;;;;;;10.40;4.70;;;;;;;3.39;67.94;96680.88;9860837;30;20059;-84
2021/12/05 15:27:02;;;;;;;9.23;4.18;;;;;;;3.31;68.13;96680.25;9871936;30;20048;-84
2021/12/05 15:32:27;;;;;;;9.38;4.55;;;;;;;3.26;67.79;96688.75;9866564;30;20052;-84
2021/12/05 15:39:23;;;;;;;10.68;4.80;;;;;;;3.25;68.99;96692.81;9861025;30;20052;-84
2021/12/05 15:45:50;;;;;;;10.30;5.00;;;;;;;3.31;68.32;96707.09;9878123;30;20060;-84
2021/12/05 15:51:40;;;;;;;8.40;4.03;;;;;;;3.45;68.66;96705.44;9868109;30;20052;-83
2021/12/05 15:57:33;;;;;;;9.15;4.93;;;;;;;3.58;68.13;96702.31;9859332;30;20052;-85
2021/12/05 16:04:30;;;;;;;11.85;4.68;;;;;;;3.64;68.05;96713.09;9857829;30;20064;-85
2021/12/05 16:09:52;;;;;;;8.82;3.92;;;;;;;3.69;68.16;96701.06;9875792;29;20066;-84
2021/12/05 16:15:50;;;;;;;7.88;3.78;;;;;;;3.71;68.12;96698.47;9851848;30;20052;-84
2021/12/05 16:29:29;;;;;;;6.22;3.67;;;;;;;3.67;68.42;96692.63;9766081;30;20050;-84
2021/12/05 16:35:00;;;;;;;10.07;4.00;;;;;;;3.69;68.62;96699.03;9791860;30;20076;-84
2021/12/05 16:48:40;;;;;;;8.45;4.25;;;;;;;3.73;68.06;96709.66;9796086;30;20049;-85
2021/12/05 16:54:33;;;;;;;10.15;4.43;;;;;;;3.71;68.59;96724.03;9782903;30;20065;-85
2021/12/05 17:00:25;;;;;;;8.65;4.05;;;;;;;3.70;68.69;96725.34;9791978;30;20057;-84
2021/12/05 17:06:19;;;;;;;9.85;4.15;;;;;;;3.63;68.88;96736.47;9764475;30;20425;-84
2021/12/05 17:21:04;;;;;;;9.98;4.53;;;;;;;3.52;68.85;96748.75;9848504;30;20037;-85
2021/12/05 17:28:05;;;;;;;12.88;4.53;;;;;;;3.55;68.93;96755.88;9848184;30;20065;-85
2021/12/05 17:33:59;;;;;;;9.85;4.05;;;;;;;3.56;69.06;96770.41;9847448;30;20056;-85
2021/12/05 17:40:26;;;;;;;;;;;;;;;3.62;68.46;96790.22;9839309;30;20060;-85
2021/12/05 17:47:32;;;;;;;13.43;4.70;;;;;;;3.68;68.18;96796.22;9847748;30;19926;-85
2021/12/05 17:53:30;;;;;;;11.57;5.47;;;;;;;3.67;69.07;96800.28;9846269;30;20056;-85
2021/12/05 18:00:12;;;;;;;9.98;4.90;;;;;;;3.72;68.29;96807.56;9838643;30;20041;-85
2021/12/05 18:06:20;;;;;;;8.73;4.75;;;;;;;3.72;68.02;96805.53;9840274;30;20053;-84
2021/12/05 18:12:44;;;;;;;11.27;4.35;;;;;;;3.72;67.63;96826.88;9830381;30;20044;-84
2021/12/05 18:18:39;;;;;;;10.57;4.82;;;;;;;3.69;68.36;96844.59;9836745;30;20057;-84
2021/12/05 18:24:33;;;;;;;12.45;5.38;;;;;;;3.69;68.14;96850.84;9826788;30;20496;-82
2021/12/05 18:30:40;;;;;;;11.77;4.45;;;;;;;3.70;68.27;96840.53;9822151;30;20060;-82
2021/12/05 18:36:03;;;;;;;10.85;3.92;;;;;;;3.70;68.35;96838.50;9796180;30;20076;-81
2021/12/05 18:41:28;;;;;;;9.23;4.40;;;;;;;3.65;68.37;96838.72;9791885;30;20056;-81
2021/12/05 18:46:50;;;;;;;11.43;5.07;;;;;;;3.58;67.92;96829.25;9786595;30;20063;-80
2021/12/05 18:52:14;;;;;;;13.38;5.88;;;;;;;3.55;68.51;96819.34;9780721;30;20048;-80
2021/12/05 18:57:37;;;;;;;13.13;5.45;;;;;;;3.52;67.95;96831.53;9780014;30;20107;-80
2021/12/05 19:14:25;;;;;;;13.15;5.88;;;;;;;3.48;68.50;96827.72;9776218;30;20131;-80
2021/12/05 19:19:48;;;;;;;11.63;5.57;;;;;;;3.45;68.33;96851.66;9805709;30;20052;-81
2021/12/05 19:25:48;;;;;;;12.45;5.82;;;;;;;3.49;68.41;96860.28;9795865;30;20056;-80
2021/12/05 19:31:11;;;;;;;12.45;6.70;;;;;;;3.52;68.07;96848.09;9760664;30;20056;-81
2021/12/05 19:36:40;;;;;;;15.90;6.00;;;;;;;3.51;68.36;96852.16;9781999;30;20075;-81
2021/12/05 19:42:03;;;;;;;8.75;5.50;;;;;;;3.55;68.36;96863.50;9779904;30;20045;-81
2021/12/05 19:48:26;;;;;;;14.00;5.40;;;;;;;3.56;68.00;96870.47;9798575;30;20056;-81
2021/12/05 19:54:17;;;;;;;11.30;5.15;;;;;;;3.53;68.26;96871.63;9795679;30;20057;-81
2021/12/05 19:59:47;;;;;;;11.27;4.75;;;;;;;3.54;68.01;96867.56;9772863;30;20052;-82
2021/12/05 20:05:12;;;;;;;11.27;5.28;;;;;;;3.57;67.80;96887.75;9788446;30;20503;-83
2021/12/05 20:11:07;;;;;;;12.10;5.40;;;;;;;3.56;67.61;96887.03;9799229;30;20470;-82
2021/12/05 20:16:30;;;;;;;14.05;5.80;;;;;;;3.58;67.83;96889.25;9777739;30;20061;-82
2021/12/05 20:30:01;;;;;;;15.57;5.73;;;;;;;3.58;67.60;96889.97;9806028;30;20155;-82
2021/12/05 20:36:00;;;;;;;13.57;6.03;;;;;;;3.58;67.47;96884.47;9780623;30;20048;-80
2021/12/05 20:41:50;;;;;;;11.43;4.95;;;;;;;3.59;68.20;96885.19;9800869;30;20053;-80
2021/12/05 20:48:16;;;;;;;9.18;4.72;;;;;;;3.57;67.43;96887.75;9784594;30;20056;-82
2021/12/05 20:54:07;;;;;;;12.93;4.63;;;;;;;3.59;68.45;96885.91;9792032;30;20061;-80
2021/12/05 21:00:00;;;;;;;11.05;4.93;;;;;;;3.59;68.09;96894.19;9790454;30;20060;-80
2021/12/05 21:06:42;;;;;;;11.07;4.95;;;;;;;3.55;68.04;96884.84;9764271;30;20102;-79
2021/12/05 21:12:18;;;;;;;9.75;5.25;;;;;;;3.55;68.00;96891.09;9797875;30;20060;-79
2021/12/05 21:17:52;;;;;;;12.65;5.50;;;;;;;3.55;67.54;96879.31;9764792;30;20075;-79
2021/12/05 21:23:17;;;;;;;11.23;5.90;;;;;;;3.53;67.75;96890.22;9761039;30;20066;-78
2021/12/05 21:28:42;;;;;;;13.10;6.03;;;;;;;3.50;68.15;96892.09;9773945;30;20503;-79
2021/12/05 21:34:07;;;;;;;14.13;5.97;;;;;;;3.50;67.95;96896.88;9772714;30;20049;-79
2021/12/05 21:39:32;;;;;;;14.57;6.50;;;;;;;3.44;67.97;96899.84;9762181;30;20515;-80
2021/12/05 21:45:11;;;;;;;14.43;5.43;;;;;;;3.43;67.93;96912.19;9783457;30;20052;-84
2021/12/05 21:50:34;;;;;;;13.27;6.13;;;;;;;3.42;68.00;96916.25;9765287;30;20053;-79
2021/12/05 21:56:00;;;;;;;10.32;5.70;;;;;;;3.43;68.10;96923.22;9784659;30;20131;-79
2021/12/05 22:01:38;;;;;;;14.43;6.43;;;;;;;3.43;68.04;96917.72;9790035;30;20060;-80
2021/12/05 22:07:03;;;;;;;17.05;7.68;;;;;;;3.42;68.16;96919.00;9760713;30;20060;-81
2021/12/05 22:12:33;;;;;;;12.43;6.13;;;;;;;3.45;67.94;96921.34;9780505;30;20062;-77
2021/12/05 22:17:55;;;;;;;10.65;5.78;;;;;;;3.44;67.76;96919.16;9766574;30;20504;-77
2021/12/05 22:23:19;;;;;;;11.93;5.72;;;;;;;3.45;67.73;96928.91;9778270;30;20059;-77
2021/12/05 22:28:45;;;;;;;16.00;7.47;;;;;;;3.44;67.49;96922.66;9766769;30;20068;-77
2021/12/05 22:34:10;;;;;;;15.05;6.57;;;;;;;3.42;67.79;96928.03;9790504;30;20076;-77
2021/12/05 22:39:33;;;;;;;12.63;5.70;;;;;;;3.41;67.77;96921.03;9790632;30;20044;-77
2021/12/05 22:45:32;;;;;;;13.90;6.43;;;;;;;3.42;67.60;96933.53;9780032;30;20059;-77
2021/12/05 22:50:55;;;;;;;10.63;5.57;;;;;;;3.41;67.79;96926.56;9789323;30;20567;-78
2021/12/05 22:56:17;;;;;;;15.05;6.45;;;;;;;3.39;67.36;96926.41;9777337;30;20476;-77
2021/12/05 23:01:40;;;;;;;18.08;6.10;;;;;;;3.39;67.83;96929.16;9788848;30;20089;-77
2021/12/05 23:07:31;;;;;;;13.75;5.53;;;;;;;3.40;67.62;96936.13;9793700;30;20056;-78
2021/12/05 23:13:21;;;;;;;11.93;5.35;;;;;;;3.40;67.52;96940.94;9775051;30;20056;-77
2021/12/05 23:19:12;;;;;;;13.65;5.78;;;;;;;3.40;67.67;96935.41;9779006;30;20569;-77
2021/12/05 23:24:37;;;;;;;11.32;4.78;;;;;;;3.42;67.75;96946.59;9777816;30;20480;-77
2021/12/05 23:30:08;;;;;;;;;;;;;;;3.41;67.51;96948.63;9777566;30;20468;-78
2021/12/05 23:36:00;;;;;;;11.30;4.85;;;;;;;3.40;67.16;96947.16;9800309;30;19926;-77
2021/12/05 23:41:22;;;;;;;12.88;5.72;;;;;;;3.40;67.53;96963.72;9764176;30;20053;-78
2021/12/05 23:47:23;;;;;;;12.48;6.30;;;;;;;3.37;67.36;96961.34;9782893;30;20052;-78
2021/12/05 23:52:46;;;;;;;16.35;7.05;;;;;;;3.33;67.08;96953.47;9775925;30;20462;-77
2021/12/05 23:59:09;;;;;;;15.60;7.18;;;;;;;3.28;67.17;96968.25;9790610;30;20060;-77
